createdAt,value
2019-01-29T00:01:19.102Z,0.6
2019-01-29T00:07:14.081Z,0.64
2019-01-29T00:13:09.075Z,0.72
2019-01-29T00:19:04.141Z,0.86
2019-01-29T00:24:59.083Z,1.09
2019-01-29T00:30:54.083Z,2.05
2019-01-29T00:36:49.105Z,2.98
2019-01-29T00:42:44.121Z,0.86
2019-01-29T00:48:39.102Z,0.73
2019-01-29T00:54:34.114Z,0.87
2019-01-29T01:00:29.113Z,0.81
2019-01-29T01:06:24.120Z,0.76
2019-01-29T01:12:19.104Z,0.53
2019-01-29T01:18:14.133Z,0.55
2019-01-29T01:24:09.121Z,1.15
2019-01-29T01:30:04.158Z,0.64
2019-01-29T01:35:59.165Z,1.46
2019-01-29T01:41:54.119Z,1.32
2019-01-29T01:47:49.122Z,0.89
2019-01-29T01:53:44.169Z,1.12
2019-01-29T01:59:39.124Z,0.84
2019-01-29T02:05:34.174Z,1.91
2019-01-29T02:11:29.159Z,2.17
2019-01-29T02:17:24.117Z,1.47
2019-01-29T02:23:19.159Z,1.32
2019-01-29T02:29:14.175Z,1.35
2019-01-29T02:35:09.210Z,1.51
2019-01-29T02:41:04.165Z,1.14
2019-01-29T02:46:59.191Z,1.31
2019-01-29T02:52:54.176Z,1.6
2019-01-29T02:58:49.171Z,1.34
2019-01-29T03:04:44.166Z,1.62
2019-01-29T03:10:39.250Z,1.42
2019-01-29T03:16:34.173Z,1.61
2019-01-29T03:22:29.168Z,3.3
2019-01-29T03:28:24.201Z,1.97
2019-01-29T03:34:19.207Z,1.66
2019-01-29T03:40:14.192Z,1.2
2019-01-29T03:46:09.208Z,1.47
2019-01-29T03:52:04.209Z,1.71
2019-01-29T03:57:59.221Z,1.38
2019-01-29T04:03:54.186Z,1.41
2019-01-29T04:09:49.217Z,1.18
2019-01-29T04:15:44.191Z,1.44
2019-01-29T04:21:39.231Z,1.37
2019-01-29T04:27:34.195Z,2.01
2019-01-29T04:33:29.232Z,1.51
2019-01-29T04:39:24.199Z,1.92
2019-01-29T04:45:19.220Z,1.7
2019-01-29T04:51:14.215Z,1.94
2019-01-29T04:57:09.233Z,1.48
2019-01-29T05:03:04.231Z,1.36
2019-01-29T05:08:59.224Z,1.53
2019-01-29T05:14:54.271Z,1.49
2019-01-29T05:20:49.236Z,1.8
2019-01-29T05:26:44.226Z,1.77
2019-01-29T05:32:39.246Z,3.55
2019-01-29T05:38:34.246Z,2.73
2019-01-29T05:44:29.239Z,2.74
2019-01-29T05:50:24.241Z,2.04
2019-01-29T05:56:19.271Z,2.02
2019-01-29T06:02:14.242Z,2.13
2019-01-29T06:08:09.241Z,3.93
2019-01-29T06:14:04.293Z,5.46
2019-01-29T06:19:59.269Z,4.32
2019-01-29T06:25:54.262Z,3.49
2019-01-29T06:31:49.285Z,4.28
2019-01-29T06:37:44.276Z,3.05
2019-01-29T06:43:39.282Z,3.07
2019-01-29T06:49:34.295Z,3.55
2019-01-29T06:55:29.301Z,3.7
2019-01-29T07:01:24.265Z,3.37
2019-01-29T07:07:19.298Z,3
2019-01-29T07:13:14.294Z,2.77
2019-01-29T07:19:09.314Z,2.85
2019-01-29T07:25:04.300Z,2.7
2019-01-29T07:30:59.294Z,2.33
2019-01-29T07:36:54.288Z,2.84
2019-01-29T07:42:49.323Z,3.27
2019-01-29T07:48:44.306Z,4.29
2019-01-29T07:54:39.365Z,3.61
2019-01-29T08:00:34.310Z,3.72
2019-01-29T08:06:29.306Z,4.18
2019-01-29T08:12:24.318Z,3.61
2019-01-29T08:18:20.583Z,5.06
2019-01-29T08:24:14.310Z,5.09
2019-01-29T08:30:09.315Z,4.38
2019-01-29T08:36:04.348Z,4.47
2019-01-29T08:41:59.325Z,4.62
2019-01-29T08:47:54.342Z,5.32
2019-01-29T08:53:49.333Z,7.05
2019-01-29T08:59:44.332Z,6.72
2019-01-29T09:05:39.343Z,32.42
2019-01-29T09:11:34.365Z,11.31
2019-01-29T09:17:29.346Z,11.58
2019-01-29T09:23:24.403Z,10.19
2019-01-29T09:29:19.417Z,8.98
2019-01-29T09:35:14.362Z,8.02
2019-01-29T09:41:09.376Z,5.59
2019-01-29T09:47:04.400Z,5.47
2019-01-29T09:52:59.354Z,6.41
2019-01-29T09:58:54.403Z,5.51
2019-01-29T10:04:49.415Z,5.08
2019-01-29T10:10:44.406Z,5.51
2019-01-29T10:16:39.408Z,5.51
2019-01-29T10:22:34.404Z,4.33
2019-01-29T10:28:29.401Z,5.59
2019-01-29T10:34:24.407Z,3.3
2019-01-29T10:40:19.468Z,2.59
2019-01-29T10:46:14.416Z,2.23
2019-01-29T10:52:09.443Z,3
2019-01-29T10:58:04.431Z,6.43
2019-01-29T11:03:59.436Z,2.01
2019-01-29T11:09:54.761Z,1.63
2019-01-29T11:15:49.447Z,3.02
2019-01-29T11:21:44.428Z,1.93
2019-01-29T11:27:39.439Z,1.29
2019-01-29T11:33:34.446Z,1.86
2019-01-29T11:39:29.430Z,1.45
2019-01-29T11:45:24.468Z,1.8
2019-01-29T11:51:19.448Z,1.79
2019-01-29T11:57:14.460Z,1.35
2019-01-29T12:03:09.441Z,2.49
2019-01-29T12:09:04.437Z,1.51
2019-01-29T12:14:59.453Z,1.73
2019-01-29T12:20:54.435Z,1.32
2019-01-29T12:26:49.476Z,1.66
2019-01-29T12:32:44.460Z,1.07
2019-01-29T12:38:39.463Z,1.12
2019-01-29T12:44:34.464Z,1.58
2019-01-29T12:50:29.479Z,1.35
2019-01-29T12:56:24.504Z,1.53
2019-01-29T13:02:19.497Z,2.55
2019-01-29T13:08:14.473Z,2.34
2019-01-29T13:14:09.498Z,1.65
2019-01-29T13:20:04.483Z,1.97
2019-01-29T13:25:59.487Z,2.22
2019-01-29T13:31:54.517Z,1.1
2019-01-29T13:37:49.485Z,0.97
2019-01-29T13:43:44.493Z,1.18
2019-01-29T13:49:39.512Z,1.66
2019-01-29T13:55:34.497Z,1.75
2019-01-29T14:01:29.489Z,1.37
2019-01-29T14:07:24.518Z,1.14
2019-01-29T14:13:19.545Z,1.59
2019-01-29T14:19:14.508Z,2.45
2019-01-29T14:25:09.536Z,1.25
2019-01-29T14:31:04.528Z,1.16
2019-01-29T14:36:59.531Z,1.74
2019-01-29T14:42:54.525Z,1.23
2019-01-29T14:48:49.532Z,2
2019-01-29T14:54:44.536Z,1.44
2019-01-29T15:00:39.515Z,1.08
2019-01-29T15:06:35.716Z,1.57
2019-01-29T15:12:29.537Z,1.2
2019-01-29T15:18:24.557Z,1.1
2019-01-29T15:24:19.539Z,0.97
2019-01-29T15:30:14.544Z,1.2
2019-01-29T15:36:09.556Z,4.42
2019-01-29T15:42:04.549Z,2.05
2019-01-29T15:47:59.543Z,1.18
2019-01-29T15:53:54.549Z,1.74
2019-01-29T15:59:49.560Z,1.53
2019-01-29T16:05:44.569Z,1.51
2019-01-29T16:11:39.622Z,1.89
2019-01-29T16:17:34.589Z,1.4
2019-01-29T16:23:29.572Z,1.57
2019-01-29T16:29:24.659Z,1.41
2019-01-29T16:35:19.584Z,2.43
2019-01-29T16:41:14.581Z,2.67
2019-01-29T16:47:09.588Z,2.42
2019-01-29T16:53:04.633Z,2.94
2019-01-29T16:59:01.294Z,2.4
2019-01-29T17:04:54.592Z,2.23
2019-01-29T17:10:49.647Z,2.51
2019-01-29T17:16:44.580Z,1.79
2019-01-29T17:22:39.623Z,2.03
2019-01-29T17:28:34.600Z,6.8
2019-01-29T17:34:29.610Z,4.6
2019-01-29T17:40:24.627Z,2.69
2019-01-29T17:46:19.608Z,3.54
2019-01-29T17:52:14.635Z,3.97
2019-01-29T17:58:09.655Z,2.62
2019-01-29T18:04:04.661Z,2.67
2019-01-29T18:09:59.636Z,2.75
2019-01-29T18:15:54.644Z,2.3
2019-01-29T18:21:56.436Z,6.13
2019-01-29T18:27:44.657Z,4.07
2019-01-29T18:33:39.708Z,4
2019-01-29T18:39:34.677Z,3.69
2019-01-29T18:45:29.696Z,2.83
2019-01-29T18:51:24.739Z,1.95
2019-01-29T18:57:19.680Z,2.49
2019-01-29T19:03:14.677Z,7.56
2019-01-29T19:09:09.656Z,10.41
2019-01-29T19:15:04.660Z,7.38
2019-01-29T19:20:59.669Z,6.14
2019-01-29T19:26:54.668Z,6.31
2019-01-29T19:32:49.690Z,5.99
2019-01-29T19:38:44.724Z,5.78
2019-01-29T19:44:39.727Z,5.69
2019-01-29T19:50:34.672Z,6.78
2019-01-29T19:56:29.708Z,8.53
2019-01-29T20:02:24.700Z,7.71
2019-01-29T20:08:19.679Z,10.85
2019-01-29T20:14:14.720Z,11.83
2019-01-29T20:20:09.698Z,12.05
2019-01-29T20:26:04.687Z,10.01
2019-01-29T20:31:59.791Z,9.41
2019-01-29T20:37:54.729Z,5.88
2019-01-29T20:43:49.718Z,4.89
2019-01-29T20:49:44.705Z,14.17
2019-01-29T20:55:39.732Z,9.65
2019-01-29T21:01:34.742Z,9.85
2019-01-29T21:07:29.762Z,9.16
2019-01-29T21:13:24.764Z,11.02
2019-01-29T21:19:19.733Z,10.41
2019-01-29T21:25:14.763Z,7.05
2019-01-29T21:31:09.742Z,6.79
2019-01-29T21:37:04.750Z,8.26
2019-01-29T21:42:59.768Z,9.38
2019-01-29T21:48:54.807Z,8.52
2019-01-29T21:54:49.791Z,5.84
2019-01-29T22:00:44.760Z,4.61
2019-01-29T22:06:39.823Z,4.1
2019-01-29T22:12:34.764Z,6.78
2019-01-29T22:18:29.769Z,6.32
2019-01-29T22:24:24.766Z,4.51
2019-01-29T22:30:19.766Z,5
2019-01-29T22:36:14.767Z,6.47
2019-01-29T22:42:09.770Z,7.12
2019-01-29T22:48:04.797Z,6.31
2019-01-29T22:53:59.780Z,7.57
2019-01-29T22:59:54.791Z,34.32
2019-01-29T23:05:49.802Z,79.31
2019-01-29T23:11:44.771Z,28.55
2019-01-29T23:17:39.792Z,9.06
2019-01-29T23:23:34.833Z,9.95
2019-01-29T23:29:29.791Z,8.63
2019-01-29T23:35:24.821Z,7.72
2019-01-29T23:41:19.793Z,8.39
2019-01-29T23:47:14.800Z,9.67
2019-01-29T23:53:09.824Z,10.08
2019-01-29T23:59:04.875Z,7.47
